createdAt,value
2023-01-29T00:00:16.332Z,33.92
2023-01-29T00:02:44.787Z,35.95
2023-01-29T00:08:02.025Z,38.58
2023-01-29T00:10:20.921Z,43.08
2023-01-29T00:10:30.326Z,38.88
2023-01-29T00:12:58.484Z,38.33
2023-01-29T00:15:26.718Z,39.47
2023-01-29T00:17:54.903Z,38.97
2023-01-29T00:20:23.059Z,34.30
2023-01-29T00:22:51.236Z,32.80
2023-01-29T00:25:19.337Z,34.85
2023-01-29T00:27:47.518Z,35.95
2023-01-29T00:30:19.551Z,39.58
2023-01-29T00:32:48.243Z,35.80
2023-01-29T00:35:16.462Z,36.08
2023-01-29T00:37:44.633Z,37.40
2023-01-29T00:40:13.378Z,36.85
2023-01-29T00:43:00.187Z,36.97
2023-01-29T00:45:28.368Z,34.05
2023-01-29T00:47:56.589Z,32.15
2023-01-29T00:50:24.796Z,35.00
2023-01-29T00:52:54.747Z,31.30
2023-01-29T00:55:23.292Z,29.10
2023-01-29T00:57:52.366Z,32.22
2023-01-29T01:00:20.881Z,33.75
2023-01-29T01:03:07.906Z,33.22
2023-01-29T01:05:36.990Z,28.85
2023-01-29T01:08:26.100Z,28.60
2023-01-29T01:11:04.646Z,31.73
2023-01-29T01:13:34.357Z,39.63
2023-01-29T01:16:08.930Z,44.08
2023-01-29T01:18:38.099Z,44.28
2023-01-29T01:21:06.560Z,36.47
2023-01-29T01:23:35.554Z,34.35
2023-01-29T01:26:08.214Z,33.05
2023-01-29T01:28:36.538Z,34.25
2023-01-29T01:31:15.628Z,35.42
2023-01-29T01:33:44.695Z,33.40
2023-01-29T01:36:14.051Z,37.53
2023-01-29T01:38:45.301Z,39.92
2023-01-29T01:41:17.122Z,32.75
2023-01-29T01:43:51.404Z,34.05
2023-01-29T01:46:20.355Z,33.22
2023-01-29T01:48:54.675Z,31.25
2023-01-29T01:51:25.083Z,31.00
2023-01-29T01:53:58.040Z,34.28
2023-01-29T01:56:38.562Z,34.28
2023-01-29T01:59:11.128Z,29.55
2023-01-29T02:01:42.905Z,33.72
2023-01-29T02:04:42.809Z,33.45
2023-01-29T02:07:32.554Z,35.67
2023-01-29T02:10:10.344Z,33.85
2023-01-29T02:12:39.460Z,32.88
2023-01-29T02:15:08.358Z,31.02
2023-01-29T02:17:39.691Z,33.85
2023-01-29T02:20:13.051Z,38.22
2023-01-29T02:23:02.622Z,35.90
2023-01-29T02:28:54.633Z,36.58
2023-01-29T02:31:39.539Z,32.35
2023-01-29T02:34:22.396Z,31.58
2023-01-29T02:37:09.684Z,35.03
2023-01-29T02:40:17.012Z,35.38
2023-01-29T02:43:28.879Z,34.22
2023-01-29T02:46:18.818Z,31.20
2023-01-29T02:49:15.233Z,32.50
2023-01-29T02:52:11.446Z,33.42
2023-01-29T02:54:48.909Z,36.40
2023-01-29T02:57:22.159Z,35.65
2023-01-29T03:02:40.447Z,35.78
2023-01-29T03:05:15.371Z,31.73
2023-01-29T03:07:52.062Z,32.47
2023-01-29T03:10:40.686Z,33.95
2023-01-29T03:13:41.380Z,32.55
2023-01-29T03:16:44.944Z,31.55
2023-01-29T03:19:26.083Z,32.42
2023-01-29T03:22:01.244Z,31.70
2023-01-29T03:25:08.024Z,34.65
2023-01-29T03:28:01.749Z,34.50
2023-01-29T03:30:59.748Z,31.35
2023-01-29T03:34:09.033Z,34.72
2023-01-29T03:36:47.241Z,33.03
2023-01-29T03:39:17.585Z,34.03
2023-01-29T03:41:56.643Z,33.53
2023-01-29T03:44:44.114Z,30.73
2023-01-29T03:47:31.258Z,32.05
2023-01-29T03:50:07.284Z,34.65
2023-01-29T03:52:44.758Z,31.63
2023-01-29T03:55:35.445Z,31.85
2023-01-29T03:58:40.071Z,33.80
2023-01-29T04:01:21.806Z,34.53
2023-01-29T04:03:56.179Z,33.55
2023-01-29T04:06:30.110Z,31.05
2023-01-29T04:09:22.294Z,33.92
2023-01-29T04:11:59.888Z,32.60
2023-01-29T04:14:29.036Z,33.05
2023-01-29T04:17:02.069Z,39.22
2023-01-29T04:19:42.548Z,36.97
2023-01-29T04:22:21.951Z,38.30
2023-01-29T04:24:51.240Z,39.10
2023-01-29T04:27:43.244Z,38.15
2023-01-29T04:30:33.605Z,40.05
2023-01-29T04:33:40.536Z,36.30
2023-01-29T04:36:36.382Z,34.88
2023-01-29T04:39:24.801Z,34.55
2023-01-29T04:41:58.251Z,39.33
2023-01-29T04:44:50.615Z,38.28
2023-01-29T04:47:45.229Z,32.20
2023-01-29T04:50:24.276Z,35.05
2023-01-29T04:53:04.670Z,30.88
2023-01-29T04:55:41.987Z,35.42
2023-01-29T04:58:37.895Z,37.30
2023-01-29T05:01:09.196Z,36.30
2023-01-29T05:03:41.110Z,35.70
2023-01-29T05:06:11.848Z,35.65
2023-01-29T05:08:41.181Z,39.25
2023-01-29T05:11:10.120Z,40.47
2023-01-29T05:13:42.123Z,37.88
2023-01-29T05:16:24.019Z,35.30
2023-01-29T05:18:52.517Z,39.40
2023-01-29T05:21:23.135Z,34.47
2023-01-29T05:24:11.479Z,31.63
2023-01-29T05:26:58.926Z,39.92
2023-01-29T05:29:27.281Z,38.50
2023-01-29T05:31:55.480Z,31.23
2023-01-29T05:34:23.948Z,34.53
2023-01-29T05:36:52.245Z,37.42
2023-01-29T05:39:20.487Z,36.33
2023-01-29T05:41:50.030Z,36.53
2023-01-29T05:44:18.174Z,35.22
2023-01-29T05:46:46.421Z,32.22
2023-01-29T05:49:14.610Z,34.30
2023-01-29T05:51:42.859Z,35.53
2023-01-29T05:54:14.233Z,36.78
2023-01-29T05:56:43.626Z,35.60
2023-01-29T05:59:11.940Z,33.85
2023-01-29T06:01:40.255Z,38.08
2023-01-29T06:04:08.656Z,34.83
2023-01-29T06:06:36.895Z,34.55
2023-01-29T06:09:05.282Z,33.53
2023-01-29T06:11:33.446Z,31.45
2023-01-29T06:14:01.766Z,36.47
2023-01-29T06:16:29.986Z,29.90
2023-01-29T06:18:58.212Z,29.92
2023-01-29T06:21:26.431Z,36.72
2023-01-29T06:23:55.127Z,33.33
2023-01-29T06:26:23.414Z,37.80
2023-01-29T06:28:51.862Z,34.75
2023-01-29T06:31:36.830Z,35.60
2023-01-29T06:34:09.738Z,36.05
2023-01-29T06:36:38.001Z,34.72
2023-01-29T06:39:06.132Z,33.50
2023-01-29T06:41:34.631Z,35.63
2023-01-29T06:44:02.928Z,35.38
2023-01-29T06:46:31.270Z,36.38
2023-01-29T06:49:02.726Z,35.45
2023-01-29T06:51:30.937Z,34.85
2023-01-29T06:53:59.260Z,34.53
2023-01-29T06:56:27.489Z,36.15
2023-01-29T06:58:55.753Z,36.42
2023-01-29T07:01:35.610Z,37.63
2023-01-29T07:04:04.712Z,33.88
2023-01-29T07:06:33.511Z,41.15
2023-01-29T07:09:02.080Z,34.90
2023-01-29T07:11:30.571Z,32.50
2023-01-29T07:13:58.855Z,35.28
2023-01-29T07:16:27.213Z,39.97
2023-01-29T07:18:55.663Z,34.28
2023-01-29T07:21:24.574Z,40.63
2023-01-29T07:23:52.943Z,36.05
2023-01-29T07:26:21.266Z,37.55
2023-01-29T07:28:52.597Z,39.55
2023-01-29T07:31:21.898Z,41.25
2023-01-29T07:33:50.538Z,35.58
2023-01-29T07:36:19.011Z,38.40
2023-01-29T07:38:50.833Z,40.83
2023-01-29T07:41:19.046Z,36.60
2023-01-29T07:43:48.755Z,36.70
2023-01-29T07:46:17.009Z,40.10
2023-01-29T07:48:45.297Z,38.03
2023-01-29T07:51:13.498Z,39.88
2023-01-29T07:53:42.022Z,46.08
2023-01-29T07:56:10.192Z,41.65
2023-01-29T07:58:41.199Z,38.80
2023-01-29T08:01:09.470Z,44.50
2023-01-29T08:03:37.822Z,47.55
2023-01-29T08:06:06.210Z,40.55
2023-01-29T08:08:34.563Z,45.05
2023-01-29T08:11:04.474Z,42.28
2023-01-29T08:13:33.564Z,36.80
2023-01-29T08:16:03.247Z,37.88
2023-01-29T08:18:31.723Z,32.47
2023-01-29T08:21:01.585Z,39.28
2023-01-29T08:23:30.062Z,38.30
2023-01-29T08:25:58.294Z,37.45
2023-01-29T08:28:26.640Z,37.95
2023-01-29T08:30:55.188Z,37.30
2023-01-29T08:33:38.003Z,35.15
2023-01-29T08:36:07.775Z,40.65
2023-01-29T08:38:36.964Z,37.40
2023-01-29T08:41:05.472Z,38.40
2023-01-29T08:43:35.383Z,37.65
2023-01-29T08:46:05.627Z,44.00
2023-01-29T08:48:34.031Z,42.70
2023-01-29T08:51:03.091Z,47.88
2023-01-29T08:53:32.400Z,48.83
2023-01-29T08:56:03.884Z,44.35
2023-01-29T08:58:32.192Z,49.40
2023-01-29T09:01:11.265Z,45.45
2023-01-29T09:03:41.224Z,42.05
2023-01-29T09:06:11.503Z,39.53
2023-01-29T09:08:39.906Z,38.88
2023-01-29T09:11:08.187Z,50.47
2023-01-29T09:13:36.385Z,42.58
2023-01-29T09:16:05.305Z,39.22
2023-01-29T09:18:33.556Z,37.90
2023-01-29T09:21:02.718Z,37.67
2023-01-29T09:23:31.404Z,34.15
2023-01-29T09:25:59.809Z,37.70
2023-01-29T09:28:28.381Z,33.35
2023-01-29T09:30:56.709Z,33.95
2023-01-29T09:33:24.928Z,33.13
2023-01-29T09:35:53.220Z,36.75
2023-01-29T09:38:21.379Z,36.40
2023-01-29T09:41:14.203Z,33.95
2023-01-29T09:43:53.174Z,26.33
2023-01-29T09:46:41.421Z,24.80
2023-01-29T09:49:25.872Z,16.95
2023-01-29T09:51:59.340Z,22.15
2023-01-29T09:55:00.187Z,20.52
2023-01-29T09:58:10.026Z,22.90
2023-01-29T10:00:52.889Z,20.25
2023-01-29T10:03:50.772Z,20.23
2023-01-29T10:06:37.549Z,22.52
2023-01-29T10:09:24.171Z,21.00
2023-01-29T10:12:18.699Z,25.77
2023-01-29T10:14:49.756Z,20.42
2023-01-29T10:17:26.760Z,21.90
2023-01-29T10:20:19.489Z,20.85
2023-01-29T10:22:47.611Z,18.30
2023-01-29T10:25:21.012Z,19.80
2023-01-29T10:27:55.268Z,23.60
2023-01-29T10:30:40.490Z,19.38
2023-01-29T10:33:17.088Z,19.67
2023-01-29T10:35:50.149Z,20.70
2023-01-29T10:38:45.500Z,18.85
2023-01-29T10:41:24.878Z,23.42
2023-01-29T10:44:01.991Z,19.33
2023-01-29T10:46:51.761Z,20.58
2023-01-29T10:49:50.056Z,23.25
2023-01-29T10:52:59.513Z,24.52
2023-01-29T10:56:14.092Z,21.90
2023-01-29T10:59:05.474Z,16.65
2023-01-29T11:01:33.859Z,18.98
2023-01-29T11:04:04.390Z,15.82
2023-01-29T11:06:36.998Z,19.10
2023-01-29T11:12:23.718Z,17.58
2023-01-29T11:14:57.807Z,18.02
2023-01-29T11:17:27.393Z,19.38
2023-01-29T11:19:56.311Z,15.32
2023-01-29T11:22:27.824Z,17.52
2023-01-29T11:25:19.403Z,17.65
2023-01-29T11:27:49.525Z,16.40
2023-01-29T11:30:24.411Z,17.95
2023-01-29T11:33:21.827Z,20.67
2023-01-29T11:35:52.618Z,25.23
2023-01-29T11:38:25.098Z,20.75
2023-01-29T11:40:53.979Z,21.20
2023-01-29T11:43:30.008Z,22.23
2023-01-29T11:46:11.615Z,20.75
2023-01-29T11:48:51.551Z,22.13
2023-01-29T11:51:29.298Z,17.90
2023-01-29T11:54:03.929Z,19.38
2023-01-29T11:56:41.557Z,18.75
2023-01-29T11:59:37.782Z,29.60
2023-01-29T12:02:17.475Z,20.05
2023-01-29T12:04:46.844Z,15.50
2023-01-29T12:07:18.012Z,19.98
2023-01-29T12:09:57.995Z,18.00
2023-01-29T12:12:32.125Z,19.17
2023-01-29T12:15:04.184Z,16.30
2023-01-29T12:17:37.672Z,17.98
2023-01-29T12:22:48.225Z,19.85
2023-01-29T12:25:30.584Z,19.13
2023-01-29T12:28:09.538Z,19.75
2023-01-29T12:31:14.765Z,18.13
2023-01-29T12:34:02.006Z,15.85
2023-01-29T12:36:41.604Z,15.27
2023-01-29T12:39:16.596Z,16.40
2023-01-29T12:41:48.831Z,20.20
2023-01-29T12:44:42.456Z,17.88
2023-01-29T12:47:34.492Z,18.52
2023-01-29T12:50:25.148Z,17.77
2023-01-29T12:52:58.554Z,15.05
2023-01-29T12:58:04.689Z,19.65
2023-01-29T13:00:35.990Z,17.13
2023-01-29T13:03:26.141Z,22.67
2023-01-29T13:06:00.048Z,18.67
2023-01-29T13:08:35.929Z,20.80
2023-01-29T13:11:29.299Z,17.73
2023-01-29T13:14:16.733Z,18.63
2023-01-29T13:16:48.534Z,19.65
2023-01-29T13:19:35.108Z,21.27
2023-01-29T13:22:06.857Z,24.10
2023-01-29T13:24:41.199Z,19.70
2023-01-29T13:27:25.630Z,22.73
2023-01-29T13:29:55.663Z,25.10
2023-01-29T13:32:27.982Z,19.63
2023-01-29T13:35:03.294Z,21.70
2023-01-29T13:37:37.620Z,22.40
2023-01-29T13:40:07.378Z,25.90
2023-01-29T13:42:49.693Z,26.90
2023-01-29T13:45:45.541Z,25.23
2023-01-29T13:48:23.899Z,22.58
2023-01-29T13:50:53.218Z,24.23
2023-01-29T13:53:32.258Z,24.15
2023-01-29T13:56:33.400Z,23.95
2023-01-29T13:59:05.404Z,22.63
2023-01-29T14:01:48.704Z,24.58
2023-01-29T14:04:22.651Z,22.52
2023-01-29T14:06:57.116Z,21.27
2023-01-29T14:09:40.302Z,21.83
2023-01-29T14:12:23.468Z,26.40
2023-01-29T14:15:05.178Z,21.92
2023-01-29T14:17:33.598Z,22.05
2023-01-29T14:20:27.702Z,21.85
2023-01-29T14:23:02.079Z,19.80
2023-01-29T14:25:37.632Z,21.85
2023-01-29T14:28:16.408Z,23.95
2023-01-29T14:30:49.187Z,22.98
2023-01-29T14:33:42.541Z,17.92
2023-01-29T14:36:15.749Z,20.00
2023-01-29T14:38:51.922Z,19.08
2023-01-29T14:41:32.473Z,20.25
2023-01-29T14:44:41.199Z,23.83
2023-01-29T14:47:41.670Z,24.10
2023-01-29T14:50:28.759Z,22.30
2023-01-29T14:53:02.373Z,23.33
2023-01-29T14:55:41.987Z,30.10
2023-01-29T14:58:33.509Z,24.55
2023-01-29T15:01:04.530Z,23.10
2023-01-29T15:03:48.618Z,24.30
2023-01-29T15:06:23.821Z,24.25
2023-01-29T15:09:02.422Z,24.92
2023-01-29T15:11:58.288Z,29.67
2023-01-29T15:14:38.159Z,25.00
2023-01-29T15:17:26.635Z,27.15
2023-01-29T15:19:56.758Z,25.52
2023-01-29T15:22:30.354Z,27.35
2023-01-29T15:25:20.474Z,23.42
2023-01-29T15:27:49.508Z,25.50
2023-01-29T15:30:26.304Z,23.13
2023-01-29T15:32:54.745Z,25.90
2023-01-29T15:35:48.392Z,23.52
2023-01-29T15:38:20.700Z,30.98
2023-01-29T15:41:17.477Z,28.58
2023-01-29T15:43:48.725Z,32.72
2023-01-29T15:46:26.019Z,25.17
2023-01-29T15:48:57.169Z,29.88
2023-01-29T15:51:27.508Z,29.27
2023-01-29T15:53:58.302Z,28.35
2023-01-29T15:56:37.023Z,31.80
2023-01-29T15:59:09.739Z,30.90
2023-01-29T16:01:38.206Z,29.25
2023-01-29T16:04:11.407Z,30.83
2023-01-29T16:06:42.303Z,35.15
2023-01-29T16:09:19.615Z,31.85
2023-01-29T16:11:49.063Z,38.67
2023-01-29T16:14:22.349Z,37.92
2023-01-29T16:19:29.486Z,41.47
2023-01-29T16:22:02.346Z,36.58
2023-01-29T16:24:32.604Z,35.15
2023-01-29T16:27:13.824Z,36.67
2023-01-29T16:29:42.181Z,36.53
2023-01-29T16:32:13.784Z,33.58
2023-01-29T16:34:45.504Z,38.00
2023-01-29T16:37:29.921Z,38.58
2023-01-29T16:39:58.542Z,40.85
2023-01-29T16:42:31.303Z,37.42
2023-01-29T16:45:05.379Z,39.45
2023-01-29T16:47:36.940Z,41.35
2023-01-29T16:50:17.308Z,47.05
2023-01-29T16:53:23.384Z,48.70
2023-01-29T16:55:53.343Z,46.13
2023-01-29T16:58:26.961Z,49.35
2023-01-29T17:01:10.412Z,50.83
2023-01-29T17:06:13.811Z,43.10
2023-01-29T17:08:43.990Z,44.33
2023-01-29T17:11:24.666Z,49.47
2023-01-29T17:13:57.139Z,45.00
2023-01-29T17:16:34.072Z,43.85
2023-01-29T17:19:11.355Z,48.00
2023-01-29T17:21:39.608Z,47.45
2023-01-29T17:24:09.135Z,45.33
2023-01-29T17:26:37.711Z,47.17
2023-01-29T17:29:08.283Z,48.60
2023-01-29T17:31:36.583Z,38.42
2023-01-29T17:34:14.754Z,42.55
2023-01-29T17:36:44.139Z,48.15
2023-01-29T17:39:21.219Z,44.95
2023-01-29T17:41:52.261Z,43.22
2023-01-29T17:44:21.206Z,46.17
2023-01-29T17:46:49.811Z,47.10
2023-01-29T17:49:30.180Z,42.28
2023-01-29T17:51:58.877Z,48.55
2023-01-29T17:54:27.677Z,50.13
2023-01-29T17:56:56.466Z,48.25
2023-01-29T17:59:28.847Z,45.88
2023-01-29T18:01:57.147Z,49.67
2023-01-29T18:04:26.271Z,50.20
2023-01-29T18:06:56.303Z,50.45
2023-01-29T18:09:27.974Z,49.42
2023-01-29T18:11:56.143Z,50.25
2023-01-29T18:14:24.333Z,56.47
2023-01-29T18:16:53.323Z,49.60
2023-01-29T18:19:27.644Z,49.67
2023-01-29T18:21:55.989Z,50.10
2023-01-29T18:24:26.556Z,51.95
2023-01-29T18:26:54.873Z,49.60
2023-01-29T18:29:23.106Z,49.10
2023-01-29T18:31:51.309Z,50.22
2023-01-29T18:34:19.637Z,53.88
2023-01-29T18:36:47.931Z,50.53
2023-01-29T18:39:16.529Z,53.53
2023-01-29T18:41:44.712Z,52.88
2023-01-29T18:44:13.072Z,49.60
2023-01-29T18:46:41.492Z,53.28
2023-01-29T18:49:10.784Z,55.55
2023-01-29T18:51:39.004Z,51.72
2023-01-29T18:54:07.291Z,56.47
2023-01-29T18:56:35.518Z,54.30
2023-01-29T18:59:05.658Z,57.92
2023-01-29T19:01:34.939Z,53.60
2023-01-29T19:04:06.132Z,50.67
2023-01-29T19:06:36.140Z,58.20
2023-01-29T19:09:05.677Z,52.03
2023-01-29T19:11:33.955Z,59.95
2023-01-29T19:14:02.260Z,60.45
2023-01-29T19:16:30.598Z,53.85
2023-01-29T19:18:59.217Z,57.67
2023-01-29T19:21:28.472Z,54.97
2023-01-29T19:23:56.827Z,58.15
2023-01-29T19:26:25.108Z,62.80
2023-01-29T19:28:53.378Z,57.38
2023-01-29T19:31:21.588Z,59.17
2023-01-29T19:33:49.799Z,59.80
2023-01-29T19:36:18.027Z,61.92
2023-01-29T19:38:46.211Z,63.03
2023-01-29T19:41:14.597Z,69.15
2023-01-29T19:43:43.177Z,61.25
2023-01-29T19:46:11.571Z,62.97
2023-01-29T19:48:40.156Z,66.90
2023-01-29T19:51:10.764Z,63.08
2023-01-29T19:53:43.845Z,67.70
2023-01-29T19:56:17.427Z,60.35
2023-01-29T19:58:45.928Z,66.47
2023-01-29T20:01:17.168Z,63.72
2023-01-29T20:03:49.589Z,58.65
2023-01-29T20:06:22.121Z,56.42
2023-01-29T20:08:50.885Z,60.90
2023-01-29T20:11:22.423Z,59.15
2023-01-29T20:13:52.418Z,55.67
2023-01-29T20:16:21.486Z,58.05
2023-01-29T20:18:49.787Z,63.10
2023-01-29T20:21:21.939Z,70.00
2023-01-29T20:23:51.780Z,63.90
2023-01-29T20:26:21.447Z,61.67
2023-01-29T20:28:49.992Z,50.95
2023-01-29T20:31:18.419Z,58.38
2023-01-29T20:33:46.858Z,60.25
2023-01-29T20:36:15.237Z,52.08
2023-01-29T20:38:43.540Z,56.35
2023-01-29T20:41:16.912Z,60.70
2023-01-29T20:43:47.108Z,63.17
2023-01-29T20:46:15.746Z,57.97
2023-01-29T20:48:43.982Z,58.50
2023-01-29T20:51:15.682Z,61.55
2023-01-29T20:53:48.663Z,63.83
2023-01-29T20:56:18.345Z,67.15
2023-01-29T20:59:01.838Z,59.67
2023-01-29T21:01:30.085Z,58.00
2023-01-29T21:03:58.782Z,62.50
2023-01-29T21:06:30.021Z,61.63
2023-01-29T21:08:58.351Z,63.45
2023-01-29T21:11:27.071Z,68.95
2023-01-29T21:13:57.875Z,63.10
2023-01-29T21:16:26.945Z,68.65
2023-01-29T21:18:59.070Z,68.43
2023-01-29T21:21:27.637Z,65.78
2023-01-29T21:23:56.043Z,60.83
2023-01-29T21:26:24.448Z,65.13
2023-01-29T21:28:52.805Z,64.43
2023-01-29T21:31:21.824Z,60.60
2023-01-29T21:33:50.333Z,63.25
2023-01-29T21:36:18.644Z,57.17
2023-01-29T21:38:46.946Z,62.35
2023-01-29T21:41:15.192Z,63.70
2023-01-29T21:43:44.568Z,64.88
2023-01-29T21:46:12.852Z,63.88
2023-01-29T21:48:41.112Z,58.65
2023-01-29T21:51:09.725Z,56.47
2023-01-29T21:53:38.077Z,61.53
2023-01-29T21:56:06.978Z,66.57
2023-01-29T21:58:37.069Z,63.83
2023-01-29T22:01:36.342Z,63.30
2023-01-29T22:03:55.635Z,59.78
2023-01-29T22:06:24.059Z,65.28
2023-01-29T22:08:52.614Z,61.75
2023-01-29T22:11:20.994Z,59.90
2023-01-29T22:13:49.157Z,62.83
2023-01-29T22:16:17.342Z,57.58
2023-01-29T22:18:45.960Z,63.55
2023-01-29T22:21:14.125Z,59.50
2023-01-29T22:23:42.267Z,61.42
2023-01-29T22:26:11.014Z,59.17
2023-01-29T22:28:39.211Z,62.25
2023-01-29T22:31:07.459Z,59.58
2023-01-29T22:33:36.602Z,60.38
2023-01-29T22:36:05.376Z,57.22
2023-01-29T22:38:33.607Z,57.35
2023-01-29T22:41:01.951Z,62.58
2023-01-29T22:43:30.294Z,59.35
2023-01-29T22:46:01.590Z,67.60
2023-01-29T22:48:30.688Z,65.43
2023-01-29T22:51:12.031Z,65.00
2023-01-29T22:53:44.120Z,63.00
2023-01-29T22:56:12.670Z,59.88
2023-01-29T22:58:44.156Z,63.20
2023-01-29T23:01:12.466Z,63.00
2023-01-29T23:03:40.607Z,64.43
2023-01-29T23:06:08.893Z,59.05
2023-01-29T23:08:37.090Z,60.15
2023-01-29T23:11:17.753Z,64.43
2023-01-29T23:13:49.124Z,63.80
2023-01-29T23:16:18.681Z,62.00
2023-01-29T23:18:51.424Z,63.30
2023-01-29T23:21:22.853Z,61.05
2023-01-29T23:23:57.020Z,64.40
2023-01-29T23:26:43.779Z,60.08
2023-01-29T23:29:12.173Z,63.40
2023-01-29T23:31:40.513Z,61.25
2023-01-29T23:34:08.997Z,60.70
2023-01-29T23:36:37.294Z,57.40
2023-01-29T23:39:06.249Z,59.60
2023-01-29T23:41:34.649Z,65.20
2023-01-29T23:44:03.108Z,59.30
2023-01-29T23:46:31.971Z,66.00
2023-01-29T23:49:01.634Z,62.67
2023-01-29T23:51:29.972Z,59.83
2023-01-29T23:53:58.472Z,63.20
2023-01-29T23:56:26.747Z,57.33
2023-01-29T23:58:56.254Z,65.63
